createdAt,value
2022-09-06T00:00:09.829Z,0.00
2022-09-06T00:01:09.826Z,0.00
2022-09-06T00:02:09.809Z,0.00
2022-09-06T00:03:09.843Z,0.00
2022-09-06T00:04:15.080Z,0.00
2022-09-06T00:05:10.777Z,0.00
2022-09-06T00:06:09.778Z,0.00
2022-09-06T00:07:09.749Z,0.00
2022-09-06T00:08:09.760Z,0.00
2022-09-06T00:09:09.747Z,0.00
2022-09-06T00:10:09.728Z,0.00
2022-09-06T00:11:09.702Z,0.00
2022-09-06T00:12:09.721Z,0.00
2022-09-06T00:13:09.695Z,0.00
2022-09-06T00:14:09.692Z,0.00
2022-09-06T00:15:09.674Z,0.00
2022-09-06T00:16:09.737Z,0.00
2022-09-06T00:17:09.664Z,0.00
2022-09-06T00:18:09.635Z,0.00
2022-09-06T00:19:09.634Z,0.00
2022-09-06T00:20:09.614Z,0.00
2022-09-06T00:21:09.594Z,0.00
2022-09-06T00:22:09.594Z,0.00
2022-09-06T00:23:09.578Z,0.00
2022-09-06T00:24:09.564Z,0.00
2022-09-06T00:25:09.554Z,0.00
2022-09-06T00:26:09.544Z,0.00
2022-09-06T00:27:09.548Z,0.00
2022-09-06T00:28:09.537Z,0.00
2022-09-06T00:29:09.544Z,0.00
2022-09-06T00:30:09.504Z,0.00
2022-09-06T00:31:09.581Z,0.00
2022-09-06T00:32:09.480Z,0.00
2022-09-06T00:33:09.507Z,0.00
2022-09-06T00:34:09.466Z,0.00
2022-09-06T00:35:09.450Z,0.00
2022-09-06T00:36:09.439Z,0.00
2022-09-06T00:37:09.428Z,0.00
2022-09-06T00:38:09.430Z,0.00
2022-09-06T00:39:09.407Z,0.00
2022-09-06T00:40:09.444Z,0.00
2022-09-06T00:41:09.388Z,0.00
2022-09-06T00:42:09.379Z,0.00
2022-09-06T00:43:09.378Z,0.00
2022-09-06T00:44:09.352Z,0.00
2022-09-06T00:45:09.341Z,0.00
2022-09-06T00:46:09.397Z,0.00
2022-09-06T00:47:09.321Z,0.00
2022-09-06T00:48:09.310Z,0.00
2022-09-06T00:49:09.312Z,0.00
2022-09-06T00:50:09.290Z,0.00
2022-09-06T00:51:09.293Z,0.00
2022-09-06T00:52:09.272Z,0.00
2022-09-06T00:53:09.289Z,0.00
2022-09-06T00:54:09.245Z,0.00
2022-09-06T00:55:09.247Z,0.00
2022-09-06T00:56:09.231Z,0.00
2022-09-06T00:57:09.215Z,0.00
2022-09-06T00:58:09.210Z,0.00
2022-09-06T00:59:09.205Z,0.00
2022-09-06T01:00:09.196Z,0.00
2022-09-06T01:01:09.190Z,0.00
2022-09-06T01:02:09.281Z,0.00
2022-09-06T01:03:09.167Z,0.00
2022-09-06T01:04:09.137Z,0.00
2022-09-06T01:05:09.147Z,0.00
2022-09-06T01:06:09.118Z,0.00
2022-09-06T01:07:09.107Z,0.00
2022-09-06T01:08:09.120Z,0.00
2022-09-06T01:09:09.106Z,0.00
2022-09-06T01:10:09.076Z,0.00
2022-09-06T01:11:09.069Z,0.00
2022-09-06T01:12:09.058Z,0.00
2022-09-06T01:13:09.080Z,0.00
2022-09-06T01:14:09.037Z,0.00
2022-09-06T01:15:09.028Z,0.00
2022-09-06T01:16:09.065Z,0.00
2022-09-06T01:17:09.004Z,0.00
2022-09-06T01:18:08.992Z,0.00
2022-09-06T01:19:08.999Z,0.00
2022-09-06T01:20:08.970Z,0.00
2022-09-06T01:21:08.964Z,0.00
2022-09-06T01:22:08.956Z,0.00
2022-09-06T01:23:08.942Z,0.00
2022-09-06T01:24:08.955Z,0.00
2022-09-06T01:25:08.924Z,0.00
2022-09-06T01:26:08.905Z,0.00
2022-09-06T01:27:08.899Z,0.00
2022-09-06T01:28:08.883Z,0.00
2022-09-06T01:29:08.885Z,0.00
2022-09-06T01:30:08.866Z,0.00
2022-09-06T01:31:08.943Z,0.00
2022-09-06T01:32:08.856Z,0.00
2022-09-06T01:33:08.845Z,0.00
2022-09-06T01:34:08.835Z,0.00
2022-09-06T01:35:08.815Z,0.00
2022-09-06T01:36:08.795Z,0.00
2022-09-06T01:37:10.775Z,0.00
2022-09-06T01:38:08.786Z,0.00
2022-09-06T01:39:08.788Z,0.00
2022-09-06T01:40:08.823Z,0.00
2022-09-06T01:41:08.756Z,0.00
2022-09-06T01:42:08.737Z,0.00
2022-09-06T01:43:10.891Z,0.00
2022-09-06T01:44:08.717Z,0.00
2022-09-06T01:45:08.709Z,0.00
2022-09-06T01:46:08.754Z,0.00
2022-09-06T01:47:08.688Z,0.00
2022-09-06T01:48:08.668Z,0.00
2022-09-06T01:49:08.669Z,0.00
2022-09-06T01:50:08.671Z,0.00
2022-09-06T01:51:08.650Z,0.00
2022-09-06T01:52:08.631Z,0.00
2022-09-06T01:53:08.631Z,0.00
2022-09-06T01:54:08.618Z,0.00
2022-09-06T01:55:08.621Z,0.00
2022-09-06T01:56:08.617Z,0.00
2022-09-06T01:57:08.610Z,0.00
2022-09-06T01:58:08.599Z,0.00
2022-09-06T01:59:08.619Z,0.00
2022-09-06T02:00:08.568Z,0.00
2022-09-06T02:01:08.608Z,0.00
2022-09-06T02:02:08.592Z,0.00
2022-09-06T02:03:08.550Z,0.00
2022-09-06T02:04:08.529Z,0.00
2022-09-06T02:05:08.530Z,0.00
2022-09-06T02:06:08.511Z,0.00
2022-09-06T02:07:08.504Z,0.00
2022-09-06T02:08:08.491Z,0.00
2022-09-06T02:09:08.480Z,0.00
2022-09-06T02:10:08.472Z,0.00
2022-09-06T02:11:08.461Z,0.00
2022-09-06T02:12:08.463Z,0.00
2022-09-06T02:13:08.452Z,0.00
2022-09-06T02:14:08.424Z,0.00
2022-09-06T02:15:08.422Z,0.00
2022-09-06T02:16:08.443Z,0.00
2022-09-06T02:17:08.441Z,0.00
2022-09-06T02:18:08.427Z,0.00
2022-09-06T02:19:08.380Z,0.00
2022-09-06T02:20:08.364Z,0.00
2022-09-06T02:21:08.360Z,0.00
2022-09-06T02:22:08.344Z,0.00
2022-09-06T02:23:08.335Z,0.00
2022-09-06T02:24:08.332Z,0.00
2022-09-06T02:25:08.316Z,0.00
2022-09-06T02:26:08.305Z,0.00
2022-09-06T02:27:08.296Z,0.00
2022-09-06T02:28:08.345Z,0.00
2022-09-06T02:29:08.277Z,0.00
2022-09-06T02:30:08.257Z,0.00
2022-09-06T02:31:08.314Z,0.00
2022-09-06T02:32:08.236Z,0.00
2022-09-06T02:33:08.237Z,0.00
2022-09-06T02:34:08.218Z,0.00
2022-09-06T02:35:08.226Z,0.00
2022-09-06T02:36:08.198Z,0.00
2022-09-06T02:37:08.207Z,0.00
2022-09-06T02:38:08.179Z,0.00
2022-09-06T02:39:08.169Z,0.00
2022-09-06T02:40:08.200Z,0.00
2022-09-06T02:41:08.150Z,0.00
2022-09-06T02:42:08.220Z,0.00
2022-09-06T02:43:08.131Z,0.00
2022-09-06T02:44:08.110Z,0.00
2022-09-06T02:45:08.118Z,0.00
2022-09-06T02:46:08.167Z,0.00
2022-09-06T02:47:08.089Z,0.00
2022-09-06T02:48:08.073Z,0.00
2022-09-06T02:49:08.090Z,0.00
2022-09-06T02:50:08.057Z,0.00
2022-09-06T02:51:08.049Z,0.00
2022-09-06T02:52:08.044Z,0.00
2022-09-06T02:53:08.023Z,0.00
2022-09-06T02:54:08.004Z,0.00
2022-09-06T02:55:08.024Z,0.00
2022-09-06T02:56:07.984Z,0.00
2022-09-06T02:57:08.026Z,0.00
2022-09-06T02:58:07.965Z,0.00
2022-09-06T02:59:07.992Z,0.00
2022-09-06T03:00:07.956Z,0.00
2022-09-06T03:01:07.987Z,0.00
2022-09-06T03:02:08.012Z,0.00
2022-09-06T03:03:07.919Z,0.00
2022-09-06T03:04:07.939Z,0.00
2022-09-06T03:05:07.899Z,0.00
2022-09-06T03:06:07.878Z,0.00
2022-09-06T03:07:07.889Z,0.00
2022-09-06T03:08:07.888Z,0.00
2022-09-06T03:09:07.895Z,0.00
2022-09-06T03:10:07.845Z,0.00
2022-09-06T03:11:07.848Z,0.00
2022-09-06T03:12:07.820Z,0.00
2022-09-06T03:13:07.829Z,0.00
2022-09-06T03:14:07.817Z,0.00
2022-09-06T03:15:07.890Z,0.00
2022-09-06T03:16:07.780Z,0.00
2022-09-06T03:17:07.770Z,0.00
2022-09-06T03:18:07.760Z,0.00
2022-09-06T03:19:07.771Z,0.00
2022-09-06T03:20:07.741Z,0.00
2022-09-06T03:21:07.741Z,0.00
2022-09-06T03:22:07.747Z,0.00
2022-09-06T03:23:07.711Z,0.00
2022-09-06T03:24:07.702Z,0.00
2022-09-06T03:25:08.259Z,0.00
2022-09-06T03:26:07.705Z,0.00
2022-09-06T03:27:07.691Z,0.00
2022-09-06T03:28:07.669Z,0.00
2022-09-06T03:29:07.673Z,0.00
2022-09-06T03:30:07.648Z,0.00
2022-09-06T03:31:07.673Z,0.00
2022-09-06T03:32:07.616Z,0.00
2022-09-06T03:33:07.626Z,0.00
2022-09-06T03:34:10.900Z,0.00
2022-09-06T03:35:08.296Z,0.00
2022-09-06T03:36:07.628Z,0.00
2022-09-06T03:37:07.566Z,0.00
2022-09-06T03:38:07.563Z,0.00
2022-09-06T03:39:07.567Z,0.00
2022-09-06T03:40:07.574Z,0.00
2022-09-06T03:41:07.527Z,0.00
2022-09-06T03:42:07.506Z,0.00
2022-09-06T03:43:07.497Z,0.00
2022-09-06T03:44:07.497Z,0.00
2022-09-06T03:45:07.477Z,0.00
2022-09-06T03:46:07.552Z,0.00
2022-09-06T03:47:07.458Z,0.00
2022-09-06T03:48:07.438Z,0.00
2022-09-06T03:49:07.458Z,0.00
2022-09-06T03:50:07.439Z,0.00
2022-09-06T03:51:07.430Z,0.00
2022-09-06T03:52:07.399Z,0.00
2022-09-06T03:53:07.401Z,0.00
2022-09-06T03:54:07.454Z,0.00
2022-09-06T03:55:07.399Z,0.00
2022-09-06T03:56:07.380Z,0.00
2022-09-06T03:57:07.352Z,0.00
2022-09-06T03:58:07.345Z,0.00
2022-09-06T03:59:07.331Z,0.00
2022-09-06T04:00:07.320Z,0.00
2022-09-06T04:01:07.367Z,0.00
2022-09-06T04:02:07.356Z,0.00
2022-09-06T04:03:07.283Z,0.00
2022-09-06T04:04:07.273Z,0.00
2022-09-06T04:05:07.271Z,0.00
2022-09-06T04:06:07.278Z,0.00
2022-09-06T04:07:07.244Z,0.00
2022-09-06T04:08:07.259Z,0.00
2022-09-06T04:09:07.253Z,0.00
2022-09-06T04:10:07.211Z,0.00
2022-09-06T04:11:07.225Z,0.00
2022-09-06T04:12:07.186Z,0.00
2022-09-06T04:13:07.176Z,0.00
2022-09-06T04:14:07.188Z,0.00
2022-09-06T04:15:07.164Z,0.00
2022-09-06T04:16:07.234Z,0.00
2022-09-06T04:17:07.135Z,0.00
2022-09-06T04:18:09.234Z,0.00
2022-09-06T04:19:07.158Z,0.00
2022-09-06T04:20:07.106Z,0.00
2022-09-06T04:21:07.097Z,0.00
2022-09-06T04:22:07.079Z,0.00
2022-09-06T04:23:07.075Z,0.00
2022-09-06T04:24:07.107Z,4.00
2022-09-06T04:25:07.058Z,0.00
2022-09-06T04:26:07.045Z,4.00
2022-09-06T04:27:07.029Z,4.00
2022-09-06T04:28:07.009Z,4.00
2022-09-06T04:29:07.009Z,8.00
2022-09-06T04:30:07.011Z,4.00
2022-09-06T04:31:07.001Z,4.00
2022-09-06T04:32:07.039Z,8.00
2022-09-06T04:33:06.970Z,8.00
2022-09-06T04:34:06.953Z,12.00
2022-09-06T04:35:06.961Z,16.00
2022-09-06T04:36:06.971Z,20.00
2022-09-06T04:37:06.946Z,24.00
2022-09-06T04:38:06.925Z,28.00
2022-09-06T04:39:06.903Z,28.00
2022-09-06T04:40:06.959Z,32.00
2022-09-06T04:41:06.902Z,40.00
2022-09-06T04:42:06.884Z,40.00
2022-09-06T04:43:06.854Z,40.00
2022-09-06T04:44:06.894Z,40.00
2022-09-06T04:45:06.845Z,44.00
2022-09-06T04:46:06.935Z,44.00
2022-09-06T04:47:09.512Z,48.00
2022-09-06T04:48:06.863Z,48.00
2022-09-06T04:49:06.836Z,52.00
2022-09-06T04:50:06.825Z,56.00
2022-09-06T04:51:06.770Z,68.00
2022-09-06T04:52:06.767Z,80.00
2022-09-06T04:53:06.756Z,100.00
2022-09-06T04:54:06.777Z,120.00
2022-09-06T04:55:06.776Z,144.00
2022-09-06T04:56:06.749Z,164.00
2022-09-06T04:57:06.757Z,192.00
2022-09-06T04:58:06.709Z,212.00
2022-09-06T04:59:06.697Z,232.00
2022-09-06T05:00:06.758Z,256.00
2022-09-06T05:01:06.728Z,276.00
2022-09-06T05:02:06.672Z,292.00
2022-09-06T05:03:06.656Z,296.00
2022-09-06T05:04:06.710Z,296.00
2022-09-06T05:05:06.742Z,308.00
2022-09-06T05:06:06.700Z,316.00
2022-09-06T05:12:06.523Z,352.00
2022-09-06T05:12:56.878Z,380.00
2022-09-06T05:13:56.868Z,420.00
2022-09-06T05:14:56.748Z,448.00
2022-09-06T05:15:56.769Z,456.00
2022-09-06T05:16:56.889Z,460.00
2022-09-06T05:17:56.750Z,456.00
2022-09-06T05:18:56.712Z,440.00
2022-09-06T05:19:56.699Z,464.00
2022-09-06T05:20:56.752Z,476.00
2022-09-06T05:21:56.742Z,488.00
2022-09-06T05:22:56.731Z,508.00
2022-09-06T05:23:58.780Z,500.00
2022-09-06T05:24:56.645Z,524.00
2022-09-06T05:25:56.652Z,552.00
2022-09-06T05:26:56.646Z,564.00
2022-09-06T05:27:56.623Z,560.00
2022-09-06T05:28:56.659Z,548.00
2022-09-06T05:29:56.605Z,540.00
2022-09-06T05:30:56.606Z,560.00
2022-09-06T05:31:56.663Z,548.00
2022-09-06T05:32:56.571Z,544.00
2022-09-06T05:33:56.567Z,564.00
2022-09-06T05:34:56.548Z,600.00
2022-09-06T05:35:56.535Z,632.00
2022-09-06T05:36:56.546Z,648.00
2022-09-06T05:37:56.513Z,660.00
2022-09-06T05:38:56.527Z,684.00
2022-09-06T05:39:56.562Z,704.00
2022-09-06T05:40:56.481Z,724.00
2022-09-06T05:41:56.486Z,756.00
2022-09-06T05:42:56.489Z,768.00
2022-09-06T05:43:56.467Z,788.00
2022-09-06T05:44:56.501Z,884.00
2022-09-06T05:45:56.499Z,916.00
2022-09-06T05:46:56.470Z,952.00
2022-09-06T05:47:56.413Z,1004.00
2022-09-06T05:48:56.401Z,1060.00
2022-09-06T05:49:56.376Z,1108.00
2022-09-06T05:50:56.368Z,1160.00
2022-09-06T05:51:56.409Z,1172.00
2022-09-06T05:52:56.349Z,1208.00
2022-09-06T05:53:56.349Z,1212.00
2022-09-06T05:54:56.324Z,1228.00
2022-09-06T05:55:56.321Z,1292.00
2022-09-06T05:56:56.310Z,1316.00
2022-09-06T05:57:56.295Z,1292.00
2022-09-06T05:58:56.300Z,1296.00
2022-09-06T05:59:56.301Z,1284.00
2022-09-06T06:00:56.292Z,1316.00
2022-09-06T06:01:56.333Z,1340.00
2022-09-06T06:02:56.312Z,1368.00
2022-09-06T06:03:56.252Z,1396.00
2022-09-06T06:04:56.217Z,1420.00
2022-09-06T06:05:57.723Z,1420.00
2022-09-06T06:06:56.193Z,1420.00
2022-09-06T06:07:56.214Z,1460.00
2022-09-06T06:08:56.190Z,1444.00
2022-09-06T06:09:56.834Z,1400.00
2022-09-06T06:10:56.184Z,1416.00
2022-09-06T06:11:56.867Z,1456.00
2022-09-06T06:12:56.142Z,1508.00
2022-09-06T06:13:57.145Z,1576.00
2022-09-06T06:14:56.153Z,1620.00
2022-09-06T06:15:56.813Z,1620.00
2022-09-06T06:16:56.140Z,1592.00
2022-09-06T06:17:56.854Z,1600.00
2022-09-06T06:18:56.118Z,1628.00
2022-09-06T06:19:56.756Z,1676.00
2022-09-06T06:20:56.067Z,1732.00
2022-09-06T06:21:56.715Z,1772.00
2022-09-06T06:22:56.037Z,1784.00
2022-09-06T06:23:56.077Z,1816.00
2022-09-06T06:24:56.017Z,1844.00
2022-09-06T06:25:56.027Z,1852.00
2022-09-06T06:26:56.049Z,1900.00
2022-09-06T06:27:56.008Z,2016.00
2022-09-06T06:28:55.950Z,2088.00
2022-09-06T06:29:55.953Z,2088.00
2022-09-06T06:30:56.275Z,2020.00
2022-09-06T06:31:56.020Z,1988.00
2022-09-06T06:32:55.918Z,1952.00
2022-09-06T06:33:55.910Z,1896.00
2022-09-06T06:34:55.940Z,1808.00
2022-09-06T06:35:55.882Z,1664.00
2022-09-06T06:36:55.900Z,1552.00
2022-09-06T06:37:55.862Z,1532.00
2022-09-06T06:38:55.854Z,1560.00
2022-09-06T06:39:55.952Z,1640.00
2022-09-06T06:41:00.177Z,1748.00
2022-09-06T06:41:56.863Z,1900.00
2022-09-06T06:42:55.812Z,2080.00
2022-09-06T06:43:55.802Z,2232.00
2022-09-06T06:44:55.804Z,2348.00
2022-09-06T06:45:55.886Z,2408.00
2022-09-06T06:46:55.796Z,2492.00
2022-09-06T06:47:55.755Z,2532.00
2022-09-06T06:48:55.769Z,2512.00
2022-09-06T06:49:55.775Z,2556.00
2022-09-06T06:50:55.737Z,2744.00
2022-09-06T06:51:55.723Z,2896.00
2022-09-06T06:52:55.731Z,3012.00
2022-09-06T06:53:55.714Z,3024.00
2022-09-06T06:54:55.676Z,3028.00
2022-09-06T06:55:55.718Z,3100.00
2022-09-06T06:56:55.686Z,3176.00
2022-09-06T06:57:55.660Z,3128.00
2022-09-06T06:58:55.678Z,3248.00
2022-09-06T06:59:55.638Z,3108.00
2022-09-06T07:00:55.781Z,2868.00
2022-09-06T07:01:55.826Z,2736.00
2022-09-06T07:02:55.608Z,2660.00
2022-09-06T07:03:55.623Z,2700.00
2022-09-06T07:04:55.591Z,2760.00
2022-09-06T07:06:11.510Z,2776.00
2022-09-06T07:07:56.600Z,2604.00
2022-09-06T07:08:55.540Z,2644.00
2022-09-06T07:10:56.540Z,2824.00
2022-09-06T07:11:55.506Z,2840.00
2022-09-06T07:12:55.491Z,2900.00
2022-09-06T07:13:55.511Z,2788.00
2022-09-06T07:14:55.474Z,2592.00
2022-09-06T07:15:55.535Z,2464.00
2022-09-06T07:16:55.483Z,2400.00
2022-09-06T07:17:55.462Z,2360.00
2022-09-06T07:18:56.473Z,2348.00
2022-09-06T07:21:56.408Z,2184.00
2022-09-06T07:22:57.022Z,2056.00
2022-09-06T07:24:11.864Z,2016.00
2022-09-06T07:24:56.361Z,1924.00
2022-09-06T07:25:55.354Z,1820.00
2022-09-06T07:27:56.386Z,1632.00
2022-09-06T07:28:56.005Z,1684.00
2022-09-06T07:29:55.316Z,1700.00
2022-09-06T07:30:55.998Z,1748.00
2022-09-06T07:32:10.689Z,1764.00
2022-09-06T07:32:56.299Z,1728.00
2022-09-06T07:33:55.837Z,1748.00
2022-09-06T07:34:55.287Z,1656.00
2022-09-06T07:35:55.249Z,1636.00
2022-09-06T07:36:55.392Z,1652.00
2022-09-06T07:37:55.220Z,1728.00
2022-09-06T07:38:55.210Z,1700.00
2022-09-06T07:39:55.253Z,1592.00
2022-09-06T07:40:55.237Z,1764.00
2022-09-06T07:41:55.170Z,1648.00
2022-09-06T07:42:55.180Z,1596.00
2022-09-06T07:43:55.149Z,1636.00
2022-09-06T07:44:55.129Z,1604.00
2022-09-06T07:45:55.139Z,1632.00
2022-09-06T07:46:55.276Z,1696.00
2022-09-06T07:48:55.090Z,1792.00
2022-09-06T07:50:59.147Z,1840.00
2022-09-06T07:51:55.094Z,1760.00
2022-09-06T07:53:14.113Z,1896.00
2022-09-06T07:54:07.468Z,1936.00
2022-09-06T07:54:56.026Z,1956.00
2022-09-06T07:55:55.020Z,1936.00
2022-09-06T07:56:55.002Z,1888.00
2022-09-06T07:57:55.016Z,1824.00
2022-09-06T07:58:54.985Z,1792.00
2022-09-06T07:59:54.974Z,1768.00
2022-09-06T08:00:55.069Z,1864.00
2022-09-06T08:01:54.992Z,1864.00
2022-09-06T08:02:54.965Z,1872.00
2022-09-06T08:03:54.955Z,1880.00
2022-09-06T08:04:54.926Z,1884.00
2022-09-06T08:06:10.694Z,1900.00
2022-09-06T08:09:54.866Z,2016.00
2022-09-06T08:10:56.423Z,2044.00
2022-09-06T08:11:54.847Z,2080.00
2022-09-06T08:12:56.367Z,2112.00
2022-09-06T08:13:54.872Z,2136.00
2022-09-06T08:14:55.506Z,2100.00
2022-09-06T08:15:54.882Z,1972.00
2022-09-06T08:16:55.817Z,2080.00
2022-09-06T08:17:54.789Z,2036.00
2022-09-06T08:18:55.830Z,2136.00
2022-09-06T08:19:55.799Z,2144.00
2022-09-06T08:20:55.474Z,2192.00
2022-09-06T08:21:54.809Z,2184.00
2022-09-06T08:22:54.976Z,2248.00
2022-09-06T08:23:54.732Z,2356.00
2022-09-06T08:24:54.739Z,2408.00
2022-09-06T08:25:54.723Z,2332.00
2022-09-06T08:26:54.688Z,2264.00
2022-09-06T08:27:54.701Z,2200.00
2022-09-06T08:28:54.662Z,2200.00
2022-09-06T08:29:54.653Z,2248.00
2022-09-06T08:30:54.655Z,2348.00
2022-09-06T08:31:54.722Z,2400.00
2022-09-06T08:32:54.614Z,2464.00
2022-09-06T08:33:54.654Z,2548.00
2022-09-06T08:34:54.633Z,2500.00
2022-09-06T08:35:54.586Z,2404.00
2022-09-06T08:36:54.616Z,2356.00
2022-09-06T08:37:54.597Z,2292.00
2022-09-06T08:38:54.555Z,2248.00
2022-09-06T08:39:54.644Z,2244.00
2022-09-06T08:40:54.547Z,2236.00
2022-09-06T08:41:54.526Z,2244.00
2022-09-06T08:42:54.539Z,2244.00
2022-09-06T08:44:56.409Z,2252.00
2022-09-06T08:45:55.891Z,2280.00
2022-09-06T08:46:54.527Z,2304.00
2022-09-06T08:47:54.459Z,2308.00
2022-09-06T08:48:54.458Z,2388.00
2022-09-06T08:49:54.449Z,2488.00
2022-09-06T08:50:54.419Z,2544.00
2022-09-06T08:51:54.432Z,2576.00
2022-09-06T08:53:55.411Z,2784.00
2022-09-06T08:54:54.420Z,2828.00
2022-09-06T08:55:54.379Z,2852.00
2022-09-06T08:56:54.373Z,2928.00
2022-09-06T08:57:54.380Z,2948.00
2022-09-06T08:58:54.339Z,2868.00
2022-09-06T08:59:54.382Z,2760.00
2022-09-06T09:00:54.334Z,2828.00
2022-09-06T09:01:54.434Z,2892.00
2022-09-06T09:02:54.292Z,3112.00
2022-09-06T09:03:54.293Z,3280.00
2022-09-06T09:04:54.284Z,3440.00
2022-09-06T09:05:54.285Z,3644.00
2022-09-06T09:06:54.254Z,3900.00
2022-09-06T09:07:54.255Z,4168.00
2022-09-06T09:08:54.236Z,4500.00
2022-09-06T09:09:54.265Z,4924.00
2022-09-06T09:10:54.205Z,5732.00
2022-09-06T09:11:54.236Z,6620.00
2022-09-06T09:12:54.176Z,7352.00
2022-09-06T09:13:55.854Z,7632.00
2022-09-06T09:14:54.166Z,7784.00
2022-09-06T09:15:54.253Z,7884.00
2022-09-06T09:16:54.169Z,7988.00
2022-09-06T09:17:54.148Z,7852.00
2022-09-06T09:18:54.127Z,7720.00
2022-09-06T09:19:54.859Z,7864.00
2022-09-06T09:20:54.128Z,8076.00
2022-09-06T09:21:54.109Z,8244.00
2022-09-06T09:22:54.089Z,8080.00
2022-09-06T09:23:54.101Z,7976.00
2022-09-06T09:24:54.070Z,7784.00
2022-09-06T09:25:54.063Z,7716.00
2022-09-06T09:26:54.049Z,7456.00
2022-09-06T09:27:54.119Z,6912.00
2022-09-06T09:28:54.028Z,6560.00
2022-09-06T09:30:55.003Z,5972.00
2022-09-06T09:31:54.249Z,5716.00
2022-09-06T09:32:53.982Z,5592.00
2022-09-06T09:33:53.982Z,5592.00
2022-09-06T09:34:53.955Z,5828.00
2022-09-06T09:35:53.943Z,6236.00
2022-09-06T09:37:59.132Z,6424.00
2022-09-06T09:38:54.923Z,6192.00
2022-09-06T09:39:53.987Z,6016.00
2022-09-06T09:40:53.894Z,6076.00
2022-09-06T09:41:53.895Z,6296.00
2022-09-06T09:42:53.876Z,6400.00
2022-09-06T09:43:53.877Z,6164.00
2022-09-06T09:44:53.847Z,5784.00
2022-09-06T09:45:53.850Z,5664.00
2022-09-06T09:46:53.858Z,5508.00
2022-09-06T09:47:53.827Z,5420.00
2022-09-06T09:48:53.818Z,5812.00
2022-09-06T09:49:53.826Z,6052.00
2022-09-06T09:50:53.812Z,6224.00
2022-09-06T09:51:53.780Z,6356.00
2022-09-06T09:52:53.810Z,6436.00
2022-09-06T09:53:53.745Z,6480.00
2022-09-06T09:54:53.755Z,6484.00
2022-09-06T09:55:53.731Z,6420.00
2022-09-06T09:56:53.740Z,6380.00
2022-09-06T09:57:53.702Z,6276.00
2022-09-06T09:58:53.750Z,6148.00
2022-09-06T09:59:53.676Z,6100.00
2022-09-06T10:00:53.708Z,6172.00
2022-09-06T10:01:53.704Z,6372.00
2022-09-06T10:02:53.655Z,6588.00
2022-09-06T10:04:54.665Z,7048.00
2022-09-06T10:05:57.599Z,7228.00
2022-09-06T10:07:10.494Z,7300.00
2022-09-06T10:07:56.153Z,7420.00
2022-09-06T10:08:53.628Z,7664.00
2022-09-06T10:09:54.284Z,7596.00
2022-09-06T10:10:53.594Z,7460.00
2022-09-06T10:11:55.055Z,7584.00
2022-09-06T10:12:53.596Z,7492.00
2022-09-06T10:13:54.235Z,7480.00
2022-09-06T10:14:53.547Z,7492.00
2022-09-06T10:15:54.290Z,7396.00
2022-09-06T10:16:53.516Z,7424.00
2022-09-06T10:17:54.188Z,7924.00
2022-09-06T10:18:53.528Z,8256.00
2022-09-06T10:19:53.538Z,8572.00
2022-09-06T10:20:53.482Z,8936.00
2022-09-06T10:21:54.075Z,9380.00
2022-09-06T10:22:53.437Z,9720.00
2022-09-06T10:24:54.432Z,10140.00
2022-09-06T10:25:53.431Z,10280.00
2022-09-06T10:26:53.400Z,10284.00
2022-09-06T10:28:10.587Z,10216.00
2022-09-06T10:28:54.381Z,10128.00
2022-09-06T10:29:53.373Z,10016.00
2022-09-06T10:30:53.430Z,9720.00
2022-09-06T10:31:53.343Z,9304.00
2022-09-06T10:32:53.333Z,8936.00
2022-09-06T10:33:53.335Z,8688.00
2022-09-06T10:34:53.316Z,8444.00
2022-09-06T10:35:53.302Z,8300.00
2022-09-06T10:36:53.294Z,8272.00
2022-09-06T10:37:53.284Z,8264.00
2022-09-06T10:38:53.321Z,8292.00
2022-09-06T10:39:53.361Z,8332.00
2022-09-06T10:40:53.254Z,8336.00
2022-09-06T10:41:53.277Z,8380.00
2022-09-06T10:42:53.246Z,8428.00
2022-09-06T10:43:53.243Z,8428.00
2022-09-06T10:44:53.208Z,8436.00
2022-09-06T10:45:53.207Z,8416.00
2022-09-06T10:46:53.257Z,8384.00
2022-09-06T10:47:53.178Z,8436.00
2022-09-06T10:48:53.170Z,8444.00
2022-09-06T10:49:53.188Z,8468.00
2022-09-06T10:50:53.160Z,8584.00
2022-09-06T10:51:53.164Z,8676.00
2022-09-06T10:52:53.128Z,8744.00
2022-09-06T10:53:53.110Z,8892.00
2022-09-06T10:54:53.101Z,8968.00
2022-09-06T10:55:54.583Z,8924.00
2022-09-06T10:56:53.110Z,8932.00
2022-09-06T10:59:54.760Z,8936.00
2022-09-06T11:00:53.054Z,9132.00
2022-09-06T11:01:53.801Z,9304.00
2022-09-06T11:03:56.690Z,9772.00
2022-09-06T11:05:53.995Z,10236.00
2022-09-06T11:06:52.976Z,10468.00
2022-09-06T11:08:57.726Z,10656.00
2022-09-06T11:09:52.939Z,10224.00
2022-09-06T11:10:52.929Z,10080.00
2022-09-06T11:11:52.928Z,9560.00
2022-09-06T11:12:52.929Z,9620.00
2022-09-06T11:13:52.896Z,9960.00
2022-09-06T11:14:52.889Z,10256.00
2022-09-06T11:15:52.958Z,10428.00
2022-09-06T11:16:52.878Z,10532.00
2022-09-06T11:17:52.850Z,10492.00
2022-09-06T11:18:52.841Z,10480.00
2022-09-06T11:19:52.871Z,10448.00
2022-09-06T11:20:52.833Z,10368.00
2022-09-06T11:21:52.861Z,10524.00
2022-09-06T11:22:52.842Z,10692.00
2022-09-06T11:23:52.784Z,10876.00
2022-09-06T11:24:52.773Z,10604.00
2022-09-06T11:25:52.785Z,10280.00
2022-09-06T11:26:52.805Z,10048.00
2022-09-06T11:27:57.340Z,9580.00
2022-09-06T11:28:53.736Z,9276.00
2022-09-06T11:29:52.744Z,9320.00
2022-09-06T11:30:52.759Z,9752.00
2022-09-06T11:32:53.698Z,10256.00
2022-09-06T11:33:52.677Z,9704.00
2022-09-06T11:34:52.701Z,10804.00
2022-09-06T11:35:52.718Z,11388.00
2022-09-06T11:36:52.694Z,12304.00
2022-09-06T11:37:52.678Z,12760.00
2022-09-06T11:38:52.630Z,13056.00
2022-09-06T11:40:53.639Z,11896.00
2022-09-06T11:41:52.677Z,10804.00
2022-09-06T11:42:52.620Z,11596.00
2022-09-06T11:43:52.591Z,10820.00
2022-09-06T11:44:52.570Z,11872.00
2022-09-06T11:45:52.594Z,12196.00
2022-09-06T11:46:52.614Z,12928.00
2022-09-06T11:47:52.559Z,13200.00
2022-09-06T11:48:52.576Z,13256.00
2022-09-06T11:49:52.640Z,13768.00
2022-09-06T11:50:52.533Z,13820.00
2022-09-06T11:51:52.491Z,12404.00
2022-09-06T11:52:52.504Z,13680.00
2022-09-06T11:53:52.484Z,14048.00
2022-09-06T11:54:52.506Z,12868.00
2022-09-06T11:55:52.476Z,15572.00
2022-09-06T11:56:52.452Z,15060.00
2022-09-06T11:57:52.457Z,13840.00
2022-09-06T11:58:52.447Z,12676.00
2022-09-06T11:59:52.447Z,14324.00
2022-09-06T12:00:52.430Z,14620.00
2022-09-06T12:01:52.388Z,15356.00
2022-09-06T12:02:53.178Z,17280.00
2022-09-06T12:04:08.306Z,16960.00
2022-09-06T12:04:56.102Z,17696.00
2022-09-06T12:05:52.359Z,18976.00
2022-09-06T12:06:52.360Z,18688.00
2022-09-06T12:07:52.360Z,18976.00
2022-09-06T12:08:52.348Z,19232.00
2022-09-06T12:09:52.311Z,20896.00
2022-09-06T12:10:52.306Z,23232.00
2022-09-06T12:11:52.322Z,41184.00
2022-09-06T12:12:52.297Z,7576.00
2022-09-06T12:13:52.303Z,6772.00
2022-09-06T12:14:52.274Z,5860.00
2022-09-06T12:15:52.317Z,4812.00
2022-09-06T12:16:52.241Z,4140.00
2022-09-06T12:17:52.254Z,3972.00
2022-09-06T12:18:52.245Z,3944.00
2022-09-06T12:19:52.244Z,3716.00
2022-09-06T12:20:52.205Z,3436.00
2022-09-06T12:21:52.256Z,3080.00
2022-09-06T12:22:52.207Z,2748.00
2022-09-06T12:23:52.157Z,2416.00
2022-09-06T12:24:52.278Z,2172.00
2022-09-06T12:25:52.206Z,2060.00
2022-09-06T12:26:55.812Z,2008.00
2022-09-06T12:27:52.129Z,2052.00
2022-09-06T12:28:52.126Z,2112.00
2022-09-06T12:29:52.133Z,2088.00
2022-09-06T12:30:52.216Z,2024.00
2022-09-06T12:31:52.147Z,1996.00
2022-09-06T12:32:52.102Z,2000.00
2022-09-06T12:33:52.087Z,1948.00
2022-09-06T12:36:52.052Z,1744.00
2022-09-06T12:37:52.022Z,1724.00
2022-09-06T12:38:52.020Z,1736.00
2022-09-06T12:39:52.043Z,1752.00
2022-09-06T12:40:52.044Z,1760.00
2022-09-06T12:41:51.997Z,1768.00
2022-09-06T12:42:51.995Z,1792.00
2022-09-06T12:43:52.000Z,1816.00
2022-09-06T12:44:51.967Z,1824.00
2022-09-06T12:45:51.956Z,1820.00
2022-09-06T12:46:51.984Z,1800.00
2022-09-06T12:47:51.936Z,1792.00
2022-09-06T12:48:51.908Z,1796.00
2022-09-06T12:49:52.581Z,1832.00
2022-09-06T12:50:51.901Z,1876.00
2022-09-06T12:51:51.868Z,1916.00
2022-09-06T12:52:51.871Z,1980.00
2022-09-06T12:53:51.860Z,2084.00
2022-09-06T12:54:51.871Z,2228.00
2022-09-06T12:55:51.832Z,2408.00
2022-09-06T12:56:51.832Z,2544.00
2022-09-06T12:57:51.842Z,2536.00
2022-09-06T12:58:51.823Z,2444.00
2022-09-06T12:59:51.782Z,2352.00
2022-09-06T13:00:51.789Z,2240.00